sensor_id;sensor_type;location;lat;lon;timestamp;P1;durP1;ratioP1;P2;durP2;ratioP2
24547;SDS011;12713;51.624;4.924;2023-02-28T00:00:40;11.07;;;7.65;;
24547;SDS011;12713;51.624;4.924;2023-02-28T00:03:06;13.07;;;7.72;;
24547;SDS011;12713;51.624;4.924;2023-02-28T00:05:32;12.63;;;7.72;;
24547;SDS011;12713;51.624;4.924;2023-02-28T00:07:58;11.40;;;7.15;;
24547;SDS011;12713;51.624;4.924;2023-02-28T00:10:25;9.73;;;7.15;;
24547;SDS011;12713;51.624;4.924;2023-02-28T00:12:52;10.15;;;7.13;;
24547;SDS011;12713;51.624;4.924;2023-02-28T00:15:19;8.80;;;7.18;;
24547;SDS011;12713;51.624;4.924;2023-02-28T00:17:45;10.10;;;7.28;;
24547;SDS011;12713;51.624;4.924;2023-02-28T00:20:12;8.20;;;6.47;;
24547;SDS011;12713;51.624;4.924;2023-02-28T00:22:39;7.32;;;6.43;;
24547;SDS011;12713;51.624;4.924;2023-02-28T00:25:06;10.93;;;7.18;;
24547;SDS011;12713;51.624;4.924;2023-02-28T00:27:32;11.27;;;6.88;;
24547;SDS011;12713;51.624;4.924;2023-02-28T00:29:58;9.25;;;6.72;;
24547;SDS011;12713;51.624;4.924;2023-02-28T00:32:24;10.00;;;6.88;;
24547;SDS011;12713;51.624;4.924;2023-02-28T00:34:50;8.70;;;6.60;;
24547;SDS011;12713;51.624;4.924;2023-02-28T00:37:16;10.90;;;7.35;;
24547;SDS011;12713;51.624;4.924;2023-02-28T00:39:42;9.23;;;6.25;;
24547;SDS011;12713;51.624;4.924;2023-02-28T00:42:09;7.25;;;5.82;;
24547;SDS011;12713;51.624;4.924;2023-02-28T00:44:35;15.68;;;6.60;;
24547;SDS011;12713;51.624;4.924;2023-02-28T00:47:01;9.90;;;5.97;;
24547;SDS011;12713;51.624;4.924;2023-02-28T00:49:27;8.95;;;6.20;;
24547;SDS011;12713;51.624;4.924;2023-02-28T00:51:55;10.90;;;5.90;;
24547;SDS011;12713;51.624;4.924;2023-02-28T00:54:21;9.05;;;6.38;;
24547;SDS011;12713;51.624;4.924;2023-02-28T00:56:48;6.72;;;5.78;;
24547;SDS011;12713;51.624;4.924;2023-02-28T00:59:14;9.48;;;5.85;;
24547;SDS011;12713;51.624;4.924;2023-02-28T01:01:41;8.25;;;6.13;;
24547;SDS011;12713;51.624;4.924;2023-02-28T01:04:07;12.52;;;6.20;;
24547;SDS011;12713;51.624;4.924;2023-02-28T01:06:33;7.85;;;5.35;;
24547;SDS011;12713;51.624;4.924;2023-02-28T01:08:59;8.90;;;5.45;;
24547;SDS011;12713;51.624;4.924;2023-02-28T01:11:25;7.97;;;5.43;;
24547;SDS011;12713;51.624;4.924;2023-02-28T01:13:51;7.22;;;5.47;;
24547;SDS011;12713;51.624;4.924;2023-02-28T01:16:17;8.02;;;5.13;;
24547;SDS011;12713;51.624;4.924;2023-02-28T01:18:43;7.53;;;5.43;;
24547;SDS011;12713;51.624;4.924;2023-02-28T01:21:11;6.68;;;5.47;;
24547;SDS011;12713;51.624;4.924;2023-02-28T01:23:37;6.53;;;5.07;;
24547;SDS011;12713;51.624;4.924;2023-02-28T01:26:07;8.82;;;5.60;;
24547;SDS011;12713;51.624;4.924;2023-02-28T01:28:33;8.32;;;5.32;;
24547;SDS011;12713;51.624;4.924;2023-02-28T01:30:59;8.35;;;5.90;;
24547;SDS011;12713;51.624;4.924;2023-02-28T01:33:25;7.78;;;5.30;;
24547;SDS011;12713;51.624;4.924;2023-02-28T01:36:01;8.57;;;6.00;;
24547;SDS011;12713;51.624;4.924;2023-02-28T01:38:28;6.72;;;4.97;;
24547;SDS011;12713;51.624;4.924;2023-02-28T01:40:54;6.43;;;5.43;;
24547;SDS011;12713;51.624;4.924;2023-02-28T01:43:25;7.32;;;5.35;;
24547;SDS011;12713;51.624;4.924;2023-02-28T01:45:51;8.23;;;5.32;;
24547;SDS011;12713;51.624;4.924;2023-02-28T01:48:18;7.63;;;5.90;;
24547;SDS011;12713;51.624;4.924;2023-02-28T01:50:45;6.88;;;5.05;;
24547;SDS011;12713;51.624;4.924;2023-02-28T01:53:14;6.53;;;5.00;;
24547;SDS011;12713;51.624;4.924;2023-02-28T01:55:41;7.30;;;5.70;;
24547;SDS011;12713;51.624;4.924;2023-02-28T01:58:08;8.07;;;5.95;;
24547;SDS011;12713;51.624;4.924;2023-02-28T02:00:34;8.98;;;5.30;;
24547;SDS011;12713;51.624;4.924;2023-02-28T02:03:04;8.55;;;5.70;;
24547;SDS011;12713;51.624;4.924;2023-02-28T02:05:32;9.15;;;5.90;;
24547;SDS011;12713;51.624;4.924;2023-02-28T02:08:03;8.90;;;5.57;;
24547;SDS011;12713;51.624;4.924;2023-02-28T02:10:38;8.93;;;6.25;;
24547;SDS011;12713;51.624;4.924;2023-02-28T02:15:36;10.30;;;5.75;;
24547;SDS011;12713;51.624;4.924;2023-02-28T02:18:18;8.27;;;5.45;;
24547;SDS011;12713;51.624;4.924;2023-02-28T02:26:25;9.13;;;6.32;;
24547;SDS011;12713;51.624;4.924;2023-02-28T02:37:02;11.77;;;6.80;;
24547;SDS011;12713;51.624;4.924;2023-02-28T02:39:32;9.27;;;7.10;;
24547;SDS011;12713;51.624;4.924;2023-02-28T02:42:01;10.70;;;6.57;;
24547;SDS011;12713;51.624;4.924;2023-02-28T02:44:31;8.05;;;6.13;;
24547;SDS011;12713;51.624;4.924;2023-02-28T02:47:05;9.15;;;6.10;;
24547;SDS011;12713;51.624;4.924;2023-02-28T02:49:32;7.18;;;5.68;;
24547;SDS011;12713;51.624;4.924;2023-02-28T02:52:02;10.07;;;5.65;;
24547;SDS011;12713;51.624;4.924;2023-02-28T02:54:36;10.98;;;6.82;;
24547;SDS011;12713;51.624;4.924;2023-02-28T02:57:04;9.75;;;6.45;;
24547;SDS011;12713;51.624;4.924;2023-02-28T02:59:33;10.20;;;5.65;;
24547;SDS011;12713;51.624;4.924;2023-02-28T03:02:01;7.80;;;5.63;;
24547;SDS011;12713;51.624;4.924;2023-02-28T03:04:34;8.95;;;5.88;;
24547;SDS011;12713;51.624;4.924;2023-02-28T03:07:04;7.18;;;5.40;;
24547;SDS011;12713;51.624;4.924;2023-02-28T03:09:33;12.15;;;5.75;;
24547;SDS011;12713;51.624;4.924;2023-02-28T03:12:00;10.25;;;6.03;;
24547;SDS011;12713;51.624;4.924;2023-02-28T03:19:41;9.80;;;6.60;;
24547;SDS011;12713;51.624;4.924;2023-02-28T03:27:21;9.13;;;6.53;;
24547;SDS011;12713;51.624;4.924;2023-02-28T03:30:10;6.82;;;5.80;;
24547;SDS011;12713;51.624;4.924;2023-02-28T03:37:31;9.15;;;5.53;;
24547;SDS011;12713;51.624;4.924;2023-02-28T03:40:05;11.63;;;6.07;;
24547;SDS011;12713;51.624;4.924;2023-02-28T03:42:33;7.97;;;5.18;;
24547;SDS011;12713;51.624;4.924;2023-02-28T03:45:05;7.50;;;5.38;;
24547;SDS011;12713;51.624;4.924;2023-02-28T03:47:41;8.75;;;5.78;;
24547;SDS011;12713;51.624;4.924;2023-02-28T03:50:19;9.88;;;5.65;;
24547;SDS011;12713;51.624;4.924;2023-02-28T03:52:49;8.55;;;5.45;;
24547;SDS011;12713;51.624;4.924;2023-02-28T03:55:16;9.10;;;5.32;;
24547;SDS011;12713;51.624;4.924;2023-02-28T04:00:18;10.40;;;5.75;;
24547;SDS011;12713;51.624;4.924;2023-02-28T04:02:45;8.10;;;5.40;;
24547;SDS011;12713;51.624;4.924;2023-02-28T04:05:17;10.95;;;5.32;;
24547;SDS011;12713;51.624;4.924;2023-02-28T04:07:43;10.05;;;6.40;;
24547;SDS011;12713;51.624;4.924;2023-02-28T04:10:09;13.75;;;6.30;;
24547;SDS011;12713;51.624;4.924;2023-02-28T04:12:36;7.53;;;4.95;;
24547;SDS011;12713;51.624;4.924;2023-02-28T04:15:02;7.88;;;5.63;;
24547;SDS011;12713;51.624;4.924;2023-02-28T04:17:28;9.63;;;6.30;;
24547;SDS011;12713;51.624;4.924;2023-02-28T04:19:54;10.25;;;5.28;;
24547;SDS011;12713;51.624;4.924;2023-02-28T04:22:22;8.10;;;5.63;;
24547;SDS011;12713;51.624;4.924;2023-02-28T04:24:50;9.95;;;6.28;;
24547;SDS011;12713;51.624;4.924;2023-02-28T04:27:18;9.93;;;6.35;;
24547;SDS011;12713;51.624;4.924;2023-02-28T04:29:44;9.23;;;5.65;;
24547;SDS011;12713;51.624;4.924;2023-02-28T04:32:11;8.82;;;5.43;;
24547;SDS011;12713;51.624;4.924;2023-02-28T04:34:37;12.40;;;7.57;;
24547;SDS011;12713;51.624;4.924;2023-02-28T04:37:03;10.27;;;6.32;;
24547;SDS011;12713;51.624;4.924;2023-02-28T04:39:29;10.63;;;6.03;;
24547;SDS011;12713;51.624;4.924;2023-02-28T04:41:55;9.80;;;6.25;;
24547;SDS011;12713;51.624;4.924;2023-02-28T04:44:21;15.70;;;6.43;;
24547;SDS011;12713;51.624;4.924;2023-02-28T04:46:48;8.77;;;6.00;;
24547;SDS011;12713;51.624;4.924;2023-02-28T04:49:15;8.82;;;5.85;;
24547;SDS011;12713;51.624;4.924;2023-02-28T04:51:41;7.95;;;5.53;;
24547;SDS011;12713;51.624;4.924;2023-02-28T04:54:07;7.00;;;5.68;;
24547;SDS011;12713;51.624;4.924;2023-02-28T04:56:34;10.18;;;5.75;;
24547;SDS011;12713;51.624;4.924;2023-02-28T04:59:00;8.10;;;5.78;;
24547;SDS011;12713;51.624;4.924;2023-02-28T05:01:30;11.30;;;6.00;;
24547;SDS011;12713;51.624;4.924;2023-02-28T05:03:58;9.90;;;6.15;;
24547;SDS011;12713;51.624;4.924;2023-02-28T05:06:25;9.70;;;5.82;;
24547;SDS011;12713;51.624;4.924;2023-02-28T05:08:52;12.23;;;6.30;;
24547;SDS011;12713;51.624;4.924;2023-02-28T05:11:19;10.20;;;5.63;;
24547;SDS011;12713;51.624;4.924;2023-02-28T05:13:46;10.48;;;6.47;;
24547;SDS011;12713;51.624;4.924;2023-02-28T05:16:12;11.63;;;6.25;;
24547;SDS011;12713;51.624;4.924;2023-02-28T05:18:38;9.32;;;6.05;;
24547;SDS011;12713;51.624;4.924;2023-02-28T05:21:04;11.95;;;6.60;;
24547;SDS011;12713;51.624;4.924;2023-02-28T05:23:30;10.02;;;7.72;;
24547;SDS011;12713;51.624;4.924;2023-02-28T05:25:56;11.00;;;7.20;;
24547;SDS011;12713;51.624;4.924;2023-02-28T05:28:22;10.73;;;6.57;;
24547;SDS011;12713;51.624;4.924;2023-02-28T05:30:48;12.20;;;7.63;;
24547;SDS011;12713;51.624;4.924;2023-02-28T05:33:14;14.30;;;6.47;;
24547;SDS011;12713;51.624;4.924;2023-02-28T05:35:41;21.60;;;10.25;;
24547;SDS011;12713;51.624;4.924;2023-02-28T05:38:08;13.68;;;8.35;;
24547;SDS011;12713;51.624;4.924;2023-02-28T05:40:34;13.85;;;8.75;;
24547;SDS011;12713;51.624;4.924;2023-02-28T05:43:00;20.33;;;11.55;;
24547;SDS011;12713;51.624;4.924;2023-02-28T05:45:26;17.17;;;9.93;;
24547;SDS011;12713;51.624;4.924;2023-02-28T05:47:53;22.00;;;12.65;;
24547;SDS011;12713;51.624;4.924;2023-02-28T05:50:19;24.52;;;14.30;;
24547;SDS011;12713;51.624;4.924;2023-02-28T05:52:49;22.85;;;12.95;;
24547;SDS011;12713;51.624;4.924;2023-02-28T05:55:15;29.80;;;18.88;;
24547;SDS011;12713;51.624;4.924;2023-02-28T05:57:41;33.50;;;18.05;;
24547;SDS011;12713;51.624;4.924;2023-02-28T06:00:08;34.03;;;21.65;;
24547;SDS011;12713;51.624;4.924;2023-02-28T06:02:34;34.95;;;20.42;;
24547;SDS011;12713;51.624;4.924;2023-02-28T06:05:00;24.90;;;15.60;;
24547;SDS011;12713;51.624;4.924;2023-02-28T06:07:26;22.27;;;14.23;;
24547;SDS011;12713;51.624;4.924;2023-02-28T06:09:52;25.63;;;17.27;;
24547;SDS011;12713;51.624;4.924;2023-02-28T06:12:18;27.33;;;17.70;;
24547;SDS011;12713;51.624;4.924;2023-02-28T06:14:44;26.88;;;17.30;;
24547;SDS011;12713;51.624;4.924;2023-02-28T06:17:10;24.33;;;14.75;;
24547;SDS011;12713;51.624;4.924;2023-02-28T06:19:37;24.25;;;15.68;;
24547;SDS011;12713;51.624;4.924;2023-02-28T06:22:06;21.52;;;13.65;;
24547;SDS011;12713;51.624;4.924;2023-02-28T06:24:32;16.42;;;11.55;;
24547;SDS011;12713;51.624;4.924;2023-02-28T06:26:58;20.90;;;11.70;;
24547;SDS011;12713;51.624;4.924;2023-02-28T06:29:30;16.58;;;11.05;;
24547;SDS011;12713;51.624;4.924;2023-02-28T06:31:56;16.98;;;10.52;;
24547;SDS011;12713;51.624;4.924;2023-02-28T06:34:22;14.65;;;9.57;;
24547;SDS011;12713;51.624;4.924;2023-02-28T06:36:49;14.43;;;9.15;;
24547;SDS011;12713;51.624;4.924;2023-02-28T06:39:16;13.88;;;9.85;;
24547;SDS011;12713;51.624;4.924;2023-02-28T06:41:42;13.18;;;8.95;;
24547;SDS011;12713;51.624;4.924;2023-02-28T06:44:17;13.43;;;9.18;;
24547;SDS011;12713;51.624;4.924;2023-02-28T06:46:44;14.32;;;8.52;;
24547;SDS011;12713;51.624;4.924;2023-02-28T06:49:10;11.50;;;8.00;;
24547;SDS011;12713;51.624;4.924;2023-02-28T06:51:37;14.82;;;7.82;;
24547;SDS011;12713;51.624;4.924;2023-02-28T06:54:04;13.23;;;8.48;;
24547;SDS011;12713;51.624;4.924;2023-02-28T06:56:33;12.82;;;8.15;;
24547;SDS011;12713;51.624;4.924;2023-02-28T06:58:59;12.32;;;7.57;;
24547;SDS011;12713;51.624;4.924;2023-02-28T07:01:25;12.82;;;7.72;;
24547;SDS011;12713;51.624;4.924;2023-02-28T07:03:52;11.20;;;8.00;;
24547;SDS011;12713;51.624;4.924;2023-02-28T07:06:22;11.02;;;6.70;;
24547;SDS011;12713;51.624;4.924;2023-02-28T07:08:48;14.70;;;7.47;;
24547;SDS011;12713;51.624;4.924;2023-02-28T07:11:15;11.02;;;6.68;;
24547;SDS011;12713;51.624;4.924;2023-02-28T07:13:41;10.68;;;6.80;;
24547;SDS011;12713;51.624;4.924;2023-02-28T07:16:07;10.27;;;6.93;;
24547;SDS011;12713;51.624;4.924;2023-02-28T07:18:35;10.32;;;6.30;;
24547;SDS011;12713;51.624;4.924;2023-02-28T07:21:01;9.48;;;6.38;;
24547;SDS011;12713;51.624;4.924;2023-02-28T07:23:27;8.48;;;6.40;;
24547;SDS011;12713;51.624;4.924;2023-02-28T07:25:53;8.32;;;6.15;;
24547;SDS011;12713;51.624;4.924;2023-02-28T07:28:19;10.23;;;6.03;;
24547;SDS011;12713;51.624;4.924;2023-02-28T07:30:45;7.93;;;5.68;;
24547;SDS011;12713;51.624;4.924;2023-02-28T07:33:12;9.15;;;5.60;;
24547;SDS011;12713;51.624;4.924;2023-02-28T07:35:39;7.93;;;5.53;;
24547;SDS011;12713;51.624;4.924;2023-02-28T07:38:05;7.65;;;5.28;;
24547;SDS011;12713;51.624;4.924;2023-02-28T07:40:32;9.25;;;5.10;;
24547;SDS011;12713;51.624;4.924;2023-02-28T07:42:59;9.60;;;5.40;;
24547;SDS011;12713;51.624;4.924;2023-02-28T07:45:25;8.50;;;5.47;;
24547;SDS011;12713;51.624;4.924;2023-02-28T07:47:51;7.93;;;5.10;;
24547;SDS011;12713;51.624;4.924;2023-02-28T07:50:17;10.52;;;5.43;;
24547;SDS011;12713;51.624;4.924;2023-02-28T07:52:43;9.52;;;5.10;;
24547;SDS011;12713;51.624;4.924;2023-02-28T07:55:09;7.90;;;4.63;;
24547;SDS011;12713;51.624;4.924;2023-02-28T07:57:35;7.68;;;5.63;;
24547;SDS011;12713;51.624;4.924;2023-02-28T08:00:05;9.10;;;5.15;;
24547;SDS011;12713;51.624;4.924;2023-02-28T08:02:32;9.77;;;5.32;;
24547;SDS011;12713;51.624;4.924;2023-02-28T08:04:59;8.43;;;5.57;;
24547;SDS011;12713;51.624;4.924;2023-02-28T08:07:25;8.27;;;6.00;;
24547;SDS011;12713;51.624;4.924;2023-02-28T08:09:51;7.85;;;5.45;;
24547;SDS011;12713;51.624;4.924;2023-02-28T08:12:17;9.48;;;5.90;;
24547;SDS011;12713;51.624;4.924;2023-02-28T08:14:43;9.75;;;5.65;;
24547;SDS011;12713;51.624;4.924;2023-02-28T08:17:09;7.40;;;5.47;;
24547;SDS011;12713;51.624;4.924;2023-02-28T08:19:36;7.60;;;5.43;;
24547;SDS011;12713;51.624;4.924;2023-02-28T08:22:02;6.68;;;4.95;;
24547;SDS011;12713;51.624;4.924;2023-02-28T08:24:28;5.97;;;4.50;;
24547;SDS011;12713;51.624;4.924;2023-02-28T08:26:54;6.15;;;5.05;;
24547;SDS011;12713;51.624;4.924;2023-02-28T08:29:20;7.53;;;4.30;;
24547;SDS011;12713;51.624;4.924;2023-02-28T08:31:46;9.45;;;4.60;;
24547;SDS011;12713;51.624;4.924;2023-02-28T08:34:13;6.22;;;4.18;;
24547;SDS011;12713;51.624;4.924;2023-02-28T08:36:39;6.70;;;3.70;;
24547;SDS011;12713;51.624;4.924;2023-02-28T08:39:05;7.75;;;3.83;;
24547;SDS011;12713;51.624;4.924;2023-02-28T08:41:32;5.38;;;3.67;;
24547;SDS011;12713;51.624;4.924;2023-02-28T08:43:58;4.25;;;3.13;;
24547;SDS011;12713;51.624;4.924;2023-02-28T08:46:25;4.63;;;3.10;;
24547;SDS011;12713;51.624;4.924;2023-02-28T08:48:54;5.32;;;3.63;;
24547;SDS011;12713;51.624;4.924;2023-02-28T08:51:21;4.82;;;2.97;;
24547;SDS011;12713;51.624;4.924;2023-02-28T08:53:51;4.35;;;2.97;;
24547;SDS011;12713;51.624;4.924;2023-02-28T08:56:17;7.60;;;2.92;;
24547;SDS011;12713;51.624;4.924;2023-02-28T08:58:44;4.93;;;2.70;;
24547;SDS011;12713;51.624;4.924;2023-02-28T09:01:21;4.13;;;2.42;;
24547;SDS011;12713;51.624;4.924;2023-02-28T09:03:48;15.95;;;2.70;;
24547;SDS011;12713;51.624;4.924;2023-02-28T09:06:15;4.95;;;2.10;;
24547;SDS011;12713;51.624;4.924;2023-02-28T09:08:41;6.45;;;2.30;;
24547;SDS011;12713;51.624;4.924;2023-02-28T09:11:08;3.00;;;2.05;;
24547;SDS011;12713;51.624;4.924;2023-02-28T09:13:34;4.13;;;1.70;;
24547;SDS011;12713;51.624;4.924;2023-02-28T09:16:01;4.82;;;1.92;;
24547;SDS011;12713;51.624;4.924;2023-02-28T09:18:27;4.32;;;2.17;;
24547;SDS011;12713;51.624;4.924;2023-02-28T09:20:53;3.10;;;1.60;;
24547;SDS011;12713;51.624;4.924;2023-02-28T09:23:20;2.08;;;1.08;;
24547;SDS011;12713;51.624;4.924;2023-02-28T09:25:53;3.60;;;1.73;;
24547;SDS011;12713;51.624;4.924;2023-02-28T09:28:19;1.95;;;1.30;;
24547;SDS011;12713;51.624;4.924;2023-02-28T09:30:47;3.33;;;1.77;;
24547;SDS011;12713;51.624;4.924;2023-02-28T09:33:13;3.10;;;1.70;;
24547;SDS011;12713;51.624;4.924;2023-02-28T09:35:40;3.72;;;1.73;;
24547;SDS011;12713;51.624;4.924;2023-02-28T09:38:06;2.90;;;2.03;;
24547;SDS011;12713;51.624;4.924;2023-02-28T09:40:35;2.33;;;1.92;;
24547;SDS011;12713;51.624;4.924;2023-02-28T09:43:01;1.85;;;1.70;;
24547;SDS011;12713;51.624;4.924;2023-02-28T09:45:48;2.83;;;2.00;;
24547;SDS011;12713;51.624;4.924;2023-02-28T09:48:23;3.38;;;1.95;;
24547;SDS011;12713;51.624;4.924;2023-02-28T09:50:51;3.38;;;2.00;;
24547;SDS011;12713;51.624;4.924;2023-02-28T09:55:55;4.45;;;2.10;;
24547;SDS011;12713;51.624;4.924;2023-02-28T09:58:26;3.38;;;2.03;;
24547;SDS011;12713;51.624;4.924;2023-02-28T10:01:00;3.28;;;1.70;;
24547;SDS011;12713;51.624;4.924;2023-02-28T10:08:23;3.03;;;1.50;;
24547;SDS011;12713;51.624;4.924;2023-02-28T10:10:51;2.78;;;1.80;;
24547;SDS011;12713;51.624;4.924;2023-02-28T10:13:35;1.83;;;1.52;;
24547;SDS011;12713;51.624;4.924;2023-02-28T10:16:03;3.53;;;2.25;;
24547;SDS011;12713;51.624;4.924;2023-02-28T10:18:35;2.13;;;1.80;;
24547;SDS011;12713;51.624;4.924;2023-02-28T10:21:03;3.35;;;1.85;;
24547;SDS011;12713;51.624;4.924;2023-02-28T10:23:36;3.28;;;1.98;;
24547;SDS011;12713;51.624;4.924;2023-02-28T10:26:12;5.22;;;2.00;;
24547;SDS011;12713;51.624;4.924;2023-02-28T10:28:40;4.25;;;1.90;;
24547;SDS011;12713;51.624;4.924;2023-02-28T10:31:08;2.10;;;1.67;;
24547;SDS011;12713;51.624;4.924;2023-02-28T10:33:36;3.40;;;1.88;;
24547;SDS011;12713;51.624;4.924;2023-02-28T10:36:03;3.35;;;1.80;;
24547;SDS011;12713;51.624;4.924;2023-02-28T10:41:08;4.50;;;1.73;;
24547;SDS011;12713;51.624;4.924;2023-02-28T10:43:34;13.15;;;6.78;;
24547;SDS011;12713;51.624;4.924;2023-02-28T10:46:02;2.30;;;1.77;;
24547;SDS011;12713;51.624;4.924;2023-02-28T10:48:38;2.22;;;1.73;;
24547;SDS011;12713;51.624;4.924;2023-02-28T10:51:07;2.85;;;1.20;;
24547;SDS011;12713;51.624;4.924;2023-02-28T10:53:45;3.88;;;3.47;;
24547;SDS011;12713;51.624;4.924;2023-02-28T10:56:18;5.78;;;4.57;;
24547;SDS011;12713;51.624;4.924;2023-02-28T11:01:23;1.75;;;1.55;;
24547;SDS011;12713;51.624;4.924;2023-02-28T11:03:49;2.63;;;1.80;;
24547;SDS011;12713;51.624;4.924;2023-02-28T11:06:17;2.20;;;1.70;;
24547;SDS011;12713;51.624;4.924;2023-02-28T11:08:46;2.90;;;1.70;;
24547;SDS011;12713;51.624;4.924;2023-02-28T11:11:12;3.88;;;1.50;;
24547;SDS011;12713;51.624;4.924;2023-02-28T11:13:39;3.08;;;1.50;;
24547;SDS011;12713;51.624;4.924;2023-02-28T11:16:05;2.35;;;1.50;;
24547;SDS011;12713;51.624;4.924;2023-02-28T11:21:07;4.07;;;1.50;;
24547;SDS011;12713;51.624;4.924;2023-02-28T11:23:34;2.03;;;1.70;;
24547;SDS011;12713;51.624;4.924;2023-02-28T11:26:02;4.15;;;1.83;;
24547;SDS011;12713;51.624;4.924;2023-02-28T11:28:33;1.85;;;1.50;;
24547;SDS011;12713;51.624;4.924;2023-02-28T11:36:14;1.60;;;1.40;;
24547;SDS011;12713;51.624;4.924;2023-02-28T11:38:41;3.70;;;1.40;;
24547;SDS011;12713;51.624;4.924;2023-02-28T11:46:33;2.83;;;1.55;;
24547;SDS011;12713;51.624;4.924;2023-02-28T11:57:00;1.75;;;1.40;;
24547;SDS011;12713;51.624;4.924;2023-02-28T12:07:21;3.00;;;1.42;;
24547;SDS011;12713;51.624;4.924;2023-02-28T12:10:02;2.75;;;1.55;;
24547;SDS011;12713;51.624;4.924;2023-02-28T12:15:36;2.03;;;1.60;;
24547;SDS011;12713;51.624;4.924;2023-02-28T12:18:11;3.63;;;1.70;;
24547;SDS011;12713;51.624;4.924;2023-02-28T12:20:47;2.38;;;1.70;;
24547;SDS011;12713;51.624;4.924;2023-02-28T12:28:36;1.80;;;1.40;;
24547;SDS011;12713;51.624;4.924;2023-02-28T12:31:09;3.03;;;1.45;;
24547;SDS011;12713;51.624;4.924;2023-02-28T12:33:36;2.25;;;1.70;;
24547;SDS011;12713;51.624;4.924;2023-02-28T12:36:05;3.13;;;1.50;;
24547;SDS011;12713;51.624;4.924;2023-02-28T12:38:40;1.67;;;1.52;;
24547;SDS011;12713;51.624;4.924;2023-02-28T12:41:10;1.83;;;1.45;;
24547;SDS011;12713;51.624;4.924;2023-02-28T12:43:40;2.47;;;1.60;;
24547;SDS011;12713;51.624;4.924;2023-02-28T12:46:10;2.95;;;1.80;;
24547;SDS011;12713;51.624;4.924;2023-02-28T12:51:08;3.88;;;2.10;;
24547;SDS011;12713;51.624;4.924;2023-02-28T12:56:17;2.03;;;1.70;;
24547;SDS011;12713;51.624;4.924;2023-02-28T12:58:46;2.58;;;1.67;;
24547;SDS011;12713;51.624;4.924;2023-02-28T13:01:24;2.78;;;1.55;;
24547;SDS011;12713;51.624;4.924;2023-02-28T13:13:56;2.20;;;1.85;;
24547;SDS011;12713;51.624;4.924;2023-02-28T13:16:23;1.70;;;1.60;;
24547;SDS011;12713;51.624;4.924;2023-02-28T13:18:49;4.75;;;1.92;;
24547;SDS011;12713;51.624;4.924;2023-02-28T13:21:26;2.22;;;1.85;;
24547;SDS011;12713;51.624;4.924;2023-02-28T13:26:22;2.60;;;1.92;;
24547;SDS011;12713;51.624;4.924;2023-02-28T13:31:15;2.25;;;1.92;;
24547;SDS011;12713;51.624;4.924;2023-02-28T13:46:36;2.10;;;1.55;;
24547;SDS011;12713;51.624;4.924;2023-02-28T14:00:06;2.85;;;2.10;;
24547;SDS011;12713;51.624;4.924;2023-02-28T14:02:48;3.45;;;2.30;;
24547;SDS011;12713;51.624;4.924;2023-02-28T14:05:19;3.58;;;2.00;;
24547;SDS011;12713;51.624;4.924;2023-02-28T14:07:56;3.53;;;2.47;;
24547;SDS011;12713;51.624;4.924;2023-02-28T14:18:01;3.10;;;2.22;;
24547;SDS011;12713;51.624;4.924;2023-02-28T14:20:29;3.90;;;2.33;;
24547;SDS011;12713;51.624;4.924;2023-02-28T14:31:23;2.83;;;2.20;;
24547;SDS011;12713;51.624;4.924;2023-02-28T14:33:57;2.90;;;2.33;;
24547;SDS011;12713;51.624;4.924;2023-02-28T14:36:38;3.67;;;2.20;;
24547;SDS011;12713;51.624;4.924;2023-02-28T14:39:06;4.07;;;1.98;;
24547;SDS011;12713;51.624;4.924;2023-02-28T14:41:33;2.65;;;2.15;;
24547;SDS011;12713;51.624;4.924;2023-02-28T14:44:02;2.60;;;2.40;;
24547;SDS011;12713;51.624;4.924;2023-02-28T14:46:38;3.65;;;2.40;;
24547;SDS011;12713;51.624;4.924;2023-02-28T14:49:05;4.30;;;2.60;;
24547;SDS011;12713;51.624;4.924;2023-02-28T14:51:32;2.95;;;2.25;;
24547;SDS011;12713;51.624;4.924;2023-02-28T14:53:59;4.72;;;2.45;;
24547;SDS011;12713;51.624;4.924;2023-02-28T14:56:30;3.45;;;2.10;;
24547;SDS011;12713;51.624;4.924;2023-02-28T14:58:57;3.95;;;2.30;;
24547;SDS011;12713;51.624;4.924;2023-02-28T15:01:24;2.15;;;1.83;;
24547;SDS011;12713;51.624;4.924;2023-02-28T15:03:57;5.30;;;2.53;;
24547;SDS011;12713;51.624;4.924;2023-02-28T15:06:24;2.40;;;2.08;;
24547;SDS011;12713;51.624;4.924;2023-02-28T15:09:06;5.70;;;2.72;;
24547;SDS011;12713;51.624;4.924;2023-02-28T15:11:33;3.67;;;2.30;;
24547;SDS011;12713;51.624;4.924;2023-02-28T15:13:59;5.07;;;2.90;;
24547;SDS011;12713;51.624;4.924;2023-02-28T15:16:33;22.15;;;13.02;;
24547;SDS011;12713;51.624;4.924;2023-02-28T15:19:02;4.15;;;2.78;;
24547;SDS011;12713;51.624;4.924;2023-02-28T15:21:30;3.42;;;2.40;;
24547;SDS011;12713;51.624;4.924;2023-02-28T15:24:02;3.60;;;2.65;;
24547;SDS011;12713;51.624;4.924;2023-02-28T15:26:31;2.28;;;2.05;;
24547;SDS011;12713;51.624;4.924;2023-02-28T15:29:04;3.42;;;2.17;;
24547;SDS011;12713;51.624;4.924;2023-02-28T15:31:32;2.67;;;2.35;;
24547;SDS011;12713;51.624;4.924;2023-02-28T15:34:02;3.40;;;2.40;;
24547;SDS011;12713;51.624;4.924;2023-02-28T15:36:29;3.92;;;2.45;;
24547;SDS011;12713;51.624;4.924;2023-02-28T15:38:58;4.30;;;2.50;;
24547;SDS011;12713;51.624;4.924;2023-02-28T15:41:26;3.05;;;2.35;;
24547;SDS011;12713;51.624;4.924;2023-02-28T15:46:37;3.58;;;2.35;;
24547;SDS011;12713;51.624;4.924;2023-02-28T15:49:03;5.18;;;2.33;;
24547;SDS011;12713;51.624;4.924;2023-02-28T15:51:33;3.85;;;2.60;;
24547;SDS011;12713;51.624;4.924;2023-02-28T15:54:01;5.80;;;2.55;;
24547;SDS011;12713;51.624;4.924;2023-02-28T15:58:57;7.53;;;2.30;;
24547;SDS011;12713;51.624;4.924;2023-02-28T16:01:33;4.72;;;2.45;;
24547;SDS011;12713;51.624;4.924;2023-02-28T16:04:11;3.92;;;2.42;;
24547;SDS011;12713;51.624;4.924;2023-02-28T16:06:39;4.38;;;2.25;;
24547;SDS011;12713;51.624;4.924;2023-02-28T16:09:18;4.00;;;2.17;;
24547;SDS011;12713;51.624;4.924;2023-02-28T16:11:45;4.22;;;2.28;;
24547;SDS011;12713;51.624;4.924;2023-02-28T16:14:12;3.33;;;2.30;;
24547;SDS011;12713;51.624;4.924;2023-02-28T16:16:41;5.03;;;2.97;;
24547;SDS011;12713;51.624;4.924;2023-02-28T16:19:08;2.22;;;1.83;;
24547;SDS011;12713;51.624;4.924;2023-02-28T16:21:34;3.20;;;2.40;;
24547;SDS011;12713;51.624;4.924;2023-02-28T16:24:00;3.13;;;2.40;;
24547;SDS011;12713;51.624;4.924;2023-02-28T16:26:26;2.95;;;2.63;;
24547;SDS011;12713;51.624;4.924;2023-02-28T16:28:53;4.50;;;2.67;;
24547;SDS011;12713;51.624;4.924;2023-02-28T16:31:19;3.72;;;2.50;;
24547;SDS011;12713;51.624;4.924;2023-02-28T16:33:45;4.35;;;2.80;;
24547;SDS011;12713;51.624;4.924;2023-02-28T16:36:16;3.10;;;2.28;;
24547;SDS011;12713;51.624;4.924;2023-02-28T16:38:42;3.33;;;2.40;;
24547;SDS011;12713;51.624;4.924;2023-02-28T16:41:09;6.50;;;3.25;;
24547;SDS011;12713;51.624;4.924;2023-02-28T16:43:41;3.33;;;2.40;;
24547;SDS011;12713;51.624;4.924;2023-02-28T16:46:07;4.20;;;2.47;;
24547;SDS011;12713;51.624;4.924;2023-02-28T16:48:35;3.13;;;2.60;;
24547;SDS011;12713;51.624;4.924;2023-02-28T16:51:02;5.72;;;2.83;;
24547;SDS011;12713;51.624;4.924;2023-02-28T16:53:29;4.20;;;2.40;;
24547;SDS011;12713;51.624;4.924;2023-02-28T16:55:55;3.83;;;2.75;;
24547;SDS011;12713;51.624;4.924;2023-02-28T16:58:21;3.83;;;2.67;;
24547;SDS011;12713;51.624;4.924;2023-02-28T17:00:50;3.33;;;2.50;;
24547;SDS011;12713;51.624;4.924;2023-02-28T17:03:24;4.70;;;3.10;;
24547;SDS011;12713;51.624;4.924;2023-02-28T17:05:51;2.50;;;2.30;;
24547;SDS011;12713;51.624;4.924;2023-02-28T17:08:17;4.20;;;2.53;;
24547;SDS011;12713;51.624;4.924;2023-02-28T17:10:43;3.45;;;2.72;;
24547;SDS011;12713;51.624;4.924;2023-02-28T17:13:09;5.70;;;2.90;;
24547;SDS011;12713;51.624;4.924;2023-02-28T17:15:35;7.70;;;3.35;;
24547;SDS011;12713;51.624;4.924;2023-02-28T17:18:02;5.22;;;3.63;;